Time;durP1;ratioP1;P1;durP2;ratioP2;P2;SDS_P1;SDS_P2;PMS_P1;PMS_P2;Temp;Humidity;BMP_temperature;BMP_pressure;BME280_temperature;BME280_humidity;BME280_pressure;Samples;Min_cycle;Max_cycle;Signal;HPM_P1;HPM_P2
2022/03/25 00:02:24;;;;;;;7.35;5.60;;;20.70;48.70;;;;;;4975974;28;20197;-71
2022/03/25 00:04:50;;;;;;;6.88;5.40;;;20.60;48.70;;;;;;4976096;28;20673;-72
2022/03/25 00:07:16;;;;;;;5.43;4.93;;;20.60;48.70;;;;;;4975753;28;20190;-71
2022/03/25 00:09:42;;;;;;;5.30;4.78;;;20.60;48.70;;;;;;4976498;28;20709;-72
2022/03/25 00:12:08;;;;;;;5.68;4.90;;;20.60;48.70;;;;;;4975653;28;20240;-72
2022/03/25 00:14:34;;;;;;;7.30;5.10;;;20.60;48.60;;;;;;4975383;28;20228;-72
2022/03/25 00:17:00;;;;;;;5.30;4.80;;;20.60;48.80;;;;;;4991520;28;20221;-72
2022/03/25 00:19:26;;;;;;;5.07;4.57;;;20.60;48.80;;;;;;4991150;28;20206;-72
2022/03/25 00:21:53;;;;;;;5.03;4.53;;;20.60;48.80;;;;;;4975795;28;20200;-72
2022/03/25 00:24:18;;;;;;;5.20;4.70;;;20.60;48.80;;;;;;4974901;28;20193;-72
2022/03/25 00:26:45;;;;;;;5.38;4.80;;;20.60;48.80;;;;;;4959305;28;20189;-72
2022/03/25 00:29:12;;;;;;;5.93;4.80;;;20.60;48.80;;;;;;4990746;28;20201;-72
2022/03/25 00:31:37;;;;;;;5.38;4.88;;;20.70;48.90;;;;;;4975159;28;20217;-72
2022/03/25 00:34:08;;;;;;;5.35;4.85;;;20.60;48.80;;;;;;4974655;28;20186;-72
2022/03/25 00:36:36;;;;;;;6.03;5.13;;;20.60;48.80;;;;;;4974662;28;20192;-72
2022/03/25 00:39:02;;;;;;;5.72;5.15;;;20.60;48.70;;;;;;4975197;28;20206;-72
2022/03/25 00:41:28;;;;;;;6.10;5.07;;;20.60;48.70;;;;;;4991503;28;20186;-72
2022/03/25 00:43:54;;;;;;;6.53;5.95;;;20.60;48.60;;;;;;4974930;28;20189;-72
2022/03/25 00:46:20;;;;;;;6.35;5.78;;;20.60;48.60;;;;;;4975021;28;20195;-72
2022/03/25 00:48:46;;;;;;;5.97;5.47;;;20.60;48.60;;;;;;4974473;28;20214;-72
2022/03/25 00:51:11;;;;;;;6.50;5.90;;;20.60;48.60;;;;;;4990872;28;20221;-72
2022/03/25 00:53:38;;;;;;;8.30;6.38;;;20.60;48.50;;;;;;4974804;28;20181;-72
2022/03/25 00:56:05;;;;;;;6.85;6.07;;;20.60;48.40;;;;;;4975038;28;20201;-72
2022/03/25 00:58:32;;;;;;;6.22;5.63;;;20.60;48.30;;;;;;4974574;28;20205;-72
2022/03/25 01:00:58;;;;;;;5.40;4.90;;;20.60;48.40;;;;;;5034939;23;20239;-66
2022/03/25 01:03:24;;;;;;;4.43;4.03;;;20.50;48.20;;;;;;4995593;28;20184;-67
2022/03/25 01:05:52;;;;;;;4.90;4.40;;;20.50;48.30;;;;;;4995177;28;20184;-66
2022/03/25 01:08:18;;;;;;;5.30;4.80;;;20.50;48.40;;;;;;4995311;28;20187;-66
2022/03/25 01:10:44;;;;;;;4.75;4.35;;;20.50;48.60;;;;;;4964375;28;20248;-67
2022/03/25 01:13:10;;;;;;;4.93;4.53;;;20.50;48.50;;;;;;4992372;28;20212;-66
2022/03/25 01:15:37;;;;;;;4.93;4.53;;;20.50;48.50;;;;;;4992316;28;20223;-66
2022/03/25 01:18:03;;;;;;;4.35;3.95;;;20.50;48.50;;;;;;4991936;28;20192;-64
2022/03/25 01:20:31;;;;;;;4.97;4.57;;;20.50;48.50;;;;;;4960030;28;20318;-67
2022/03/25 01:22:57;;;;;;;5.75;4.85;;;20.50;48.50;;;;;;4976147;28;20184;-66
2022/03/25 01:25:24;;;;;;;5.00;4.50;;;20.50;48.50;;;;;;4975956;28;20185;-66
2022/03/25 01:27:50;;;;;;;5.38;4.90;;;20.50;48.50;;;;;;4991874;28;20227;-66
2022/03/25 01:30:16;;;;;;;4.85;4.45;;;20.50;48.50;;;;;;4975737;28;20213;-66
2022/03/25 01:32:41;;;;;;;5.40;4.90;;;20.50;48.50;;;;;;4993218;28;20165;-66
2022/03/25 01:35:09;;;;;;;5.65;5.15;;;20.50;48.40;;;;;;4993265;28;20185;-65
2022/03/25 01:37:36;;;;;;;6.32;5.72;;;20.50;48.40;;;;;;4992162;28;20195;-66
2022/03/25 01:40:07;;;;;;;7.85;6.40;;;20.50;48.30;;;;;;4992709;28;20204;-68
2022/03/25 01:42:39;;;;;;;6.78;6.15;;;20.50;48.20;;;;;;4991989;28;20244;-66
2022/03/25 01:45:06;;;;;;;6.25;5.65;;;20.50;48.20;;;;;;4975501;28;20173;-67
2022/03/25 01:47:33;;;;;;;6.72;6.13;;;20.50;48.00;;;;;;4975820;28;20243;-67
2022/03/25 01:50:01;;;;;;;5.78;5.28;;;20.50;47.90;;;;;;4959032;28;20216;-68
2022/03/25 01:52:28;;;;;;;5.18;4.68;;;20.50;48.00;;;;;;4975718;28;20268;-67
2022/03/25 01:54:54;;;;;;;5.63;5.13;;;20.50;48.10;;;;;;4992832;28;20231;-67
2022/03/25 01:57:25;;;;;;;5.03;4.47;;;20.50;48.20;;;;;;4975352;28;20184;-67
2022/03/25 01:59:54;;;;;;;4.75;4.35;;;20.50;48.30;;;;;;4992466;28;20216;-67
2022/03/25 02:02:21;;;;;;;5.30;4.80;;;20.50;48.30;;;;;;4991830;28;20184;-66
2022/03/25 02:04:46;;;;;;;5.43;4.60;;;20.50;48.20;;;;;;4975473;28;20189;-67
2022/03/25 02:07:12;;;;;;;6.80;5.20;;;20.50;48.20;;;;;;4991504;28;20199;-67
2022/03/25 02:09:38;;;;;;;5.30;4.85;;;20.50;48.30;;;;;;4975412;28;20259;-67
2022/03/25 02:12:09;;;;;;;4.97;4.47;;;20.50;48.30;;;;;;4975189;28;20208;-67
2022/03/25 02:14:35;;;;;;;5.47;4.97;;;20.50;48.20;;;;;;4975372;28;20181;-67
2022/03/25 02:17:01;;;;;;;4.85;4.43;;;20.50;48.30;;;;;;4976663;28;20235;-67
2022/03/25 02:19:28;;;;;;;5.93;5.32;;;20.50;48.20;;;;;;4995196;28;20232;-67
2022/03/25 02:21:54;;;;;;;7.97;6.03;;;20.50;48.20;;;;;;4995325;28;20219;-67
2022/03/25 02:24:31;;;;;;;5.93;5.43;;;20.50;48.10;;;;;;4979043;28;20177;-67
2022/03/25 02:26:58;;;;;;;7.38;6.68;;;20.40;47.90;;;;;;4978910;28;20195;-67
2022/03/25 02:29:24;;;;;;;6.80;6.10;;;20.40;47.80;;;;;;4978763;28;20319;-67
2022/03/25 02:31:50;;;;;;;7.03;6.35;;;20.40;47.70;;;;;;4978819;28;20688;-67
2022/03/25 02:34:16;;;;;;;5.93;5.43;;;20.40;47.70;;;;;;4979447;28;20177;-67
2022/03/25 02:36:45;;;;;;;5.75;5.25;;;20.40;47.70;;;;;;4979060;28;20184;-66
2022/03/25 02:39:14;;;;;;;4.90;4.47;;;20.40;47.70;;;;;;4994618;28;20275;-67
2022/03/25 02:41:41;;;;;;;4.60;4.20;;;20.40;47.70;;;;;;4979177;28;20179;-67
2022/03/25 02:44:09;;;;;;;5.05;4.55;;;20.40;48.60;;;;;;4994823;28;20185;-66
2022/03/25 02:46:36;;;;;;;4.80;4.40;;;20.40;47.90;;;;;;4978609;28;20708;-66
2022/03/25 02:49:02;;;;;;;4.57;4.18;;;20.40;47.90;;;;;;4994626;28;20185;-67
2022/03/25 02:51:28;;;;;;;5.35;4.85;;;20.40;48.00;;;;;;4994669;28;20251;-67
2022/03/25 02:53:55;;;;;;;6.32;4.47;;;20.40;48.00;;;;;;4995885;28;20185;-68
2022/03/25 02:56:24;;;;;;;4.72;4.30;;;20.40;48.00;;;;;;4978413;28;20288;-67
2022/03/25 02:58:51;;;;;;;4.65;4.25;;;20.40;48.00;;;;;;4994549;28;20607;-67
2022/03/25 03:01:18;;;;;;;5.30;4.80;;;20.40;48.00;;;;;;4978288;28;20228;-67
2022/03/25 03:03:45;;;;;;;5.25;4.80;;;20.40;48.00;;;;;;4978520;28;20181;-67
2022/03/25 03:06:11;;;;;;;5.60;5.10;;;20.40;47.90;;;;;;4994383;28;20193;-67
2022/03/25 03:08:37;;;;;;;6.68;5.25;;;20.40;47.90;;;;;;4978300;28;20199;-67
2022/03/25 03:11:04;;;;;;;5.95;5.40;;;20.40;47.90;;;;;;4994174;28;20217;-67
2022/03/25 03:13:30;;;;;;;6.38;5.75;;;20.40;47.80;;;;;;4994339;28;20276;-67
2022/03/25 03:15:56;;;;;;;6.68;5.95;;;20.40;47.80;;;;;;4995587;28;20177;-67
2022/03/25 03:18:22;;;;;;;6.10;5.50;;;20.40;47.60;;;;;;4978236;28;20193;-67
2022/03/25 03:20:48;;;;;;;6.40;5.80;;;20.40;47.60;;;;;;4978300;28;20205;-67
2022/03/25 03:23:14;;;;;;;5.80;5.30;;;20.40;47.60;;;;;;4994108;28;20272;-67
2022/03/25 03:25:40;;;;;;;6.78;6.07;;;20.40;47.60;;;;;;4978206;28;20200;-67
2022/03/25 03:28:07;;;;;;;4.88;4.47;;;20.40;47.50;;;;;;4976974;28;20189;-67
2022/03/25 03:30:34;;;;;;;5.20;4.53;;;20.40;47.60;;;;;;4977780;28;20217;-67
2022/03/25 03:33:04;;;;;;;4.60;4.20;;;20.40;47.60;;;;;;4977738;28;20254;-67
2022/03/25 03:35:32;;;;;;;4.80;4.40;;;20.40;47.60;;;;;;4977732;28;20193;-67
2022/03/25 03:37:58;;;;;;;4.80;4.40;;;20.40;47.80;;;;;;4995147;28;20268;-67
2022/03/25 03:40:25;;;;;;;5.03;4.50;;;20.40;47.80;;;;;;4977315;28;20212;-67
2022/03/25 03:42:51;;;;;;;4.85;4.45;;;20.40;47.80;;;;;;4977618;28;20279;-67
2022/03/25 03:45:17;;;;;;;4.80;4.20;;;20.40;47.80;;;;;;4977825;28;20196;-67
2022/03/25 03:47:44;;;;;;;4.65;4.18;;;20.30;47.80;;;;;;4993992;28;20208;-67
2022/03/25 03:50:14;;;;;;;4.53;4.03;;;20.40;47.80;;;;;;4994305;28;20208;-67
2022/03/25 03:52:41;;;;;;;4.97;4.10;;;20.40;47.80;;;;;;4990995;28;20177;-67
2022/03/25 03:55:09;;;;;;;5.28;4.78;;;20.40;47.80;;;;;;4977611;28;20189;-67
2022/03/25 03:57:36;;;;;;;5.97;5.43;;;20.30;47.70;;;;;;4987053;28;20197;-67
2022/03/25 04:00:11;;;;;;;5.78;5.28;;;20.30;47.60;;;;;;4985131;28;20231;-66
2022/03/25 04:02:42;;;;;;;6.55;5.95;;;20.40;47.70;;;;;;4978010;28;20707;-67
2022/03/25 04:05:10;;;;;;;6.28;5.68;;;20.30;47.40;;;;;;4961374;28;20303;-67
2022/03/25 04:07:45;;;;;;;8.88;7.97;;;20.30;47.40;;;;;;4994633;28;20173;-67
2022/03/25 04:10:12;;;;;;;5.78;5.25;;;20.30;47.30;;;;;;4960970;28;20365;-67
2022/03/25 04:12:38;;;;;;;4.70;4.30;;;20.30;47.50;;;;;;4961456;28;20188;-68
2022/03/25 04:15:10;;;;;;;5.55;5.05;;;20.30;47.50;;;;;;4977031;28;20189;-66
2022/03/25 04:17:41;;;;;;;4.78;4.38;;;20.30;47.60;;;;;;4960774;28;20682;-67
2022/03/25 04:20:10;;;;;;;4.85;4.45;;;20.30;47.60;;;;;;4994113;28;20679;-67
2022/03/25 04:22:36;;;;;;;5.28;4.88;;;20.30;47.60;;;;;;4994400;28;20180;-66
2022/03/25 04:25:03;;;;;;;4.40;4.03;;;20.30;47.60;;;;;;4994194;28;20185;-67
2022/03/25 04:27:28;;;;;;;6.20;4.50;;;20.30;47.70;;;;;;4976860;28;20200;-67
2022/03/25 04:29:55;;;;;;;4.72;4.32;;;20.30;47.70;;;;;;4976420;28;20224;-67
2022/03/25 04:32:21;;;;;;;5.00;4.53;;;20.30;47.70;;;;;;4977097;28;20224;-67
2022/03/25 04:34:46;;;;;;;5.55;4.97;;;20.30;47.70;;;;;;4992963;28;20221;-67
2022/03/25 04:37:12;;;;;;;5.57;4.95;;;20.30;47.70;;;;;;4976775;28;20218;-67
2022/03/25 04:39:39;;;;;;;5.88;5.38;;;20.30;47.60;;;;;;4975341;28;20232;-66
2022/03/25 04:42:07;;;;;;;6.07;5.57;;;20.30;47.50;;;;;;4960488;28;20256;-67
2022/03/25 04:44:34;;;;;;;5.72;5.13;;;20.30;47.50;;;;;;4960866;28;20188;-67
2022/03/25 04:47:00;;;;;;;5.70;5.20;;;20.30;47.40;;;;;;4976507;28;20193;-67
2022/03/25 04:49:25;;;;;;;6.60;6.00;;;20.30;47.40;;;;;;4960181;28;20205;-67
2022/03/25 04:51:51;;;;;;;6.57;5.97;;;20.30;47.30;;;;;;4976653;28;20219;-67
2022/03/25 04:54:18;;;;;;;7.07;6.38;;;20.30;47.30;;;;;;4976561;28;20180;-67
2022/03/25 04:56:44;;;;;;;6.25;5.65;;;20.30;47.10;;;;;;4993720;28;20184;-67
2022/03/25 04:59:10;;;;;;;6.40;5.00;;;20.30;47.10;;;;;;4976044;28;20196;-67
2022/03/25 05:01:36;;;;;;;4.82;4.43;;;20.30;47.20;;;;;;4976241;28;20195;-67
2022/03/25 05:04:02;;;;;;;4.53;4.13;;;20.30;47.20;;;;;;4960144;28;20677;-67
2022/03/25 05:06:28;;;;;;;4.32;4.03;;;20.20;47.20;;;;;;4960285;28;20201;-66
2022/03/25 05:08:53;;;;;;;4.82;4.10;;;20.30;47.40;;;;;;4976107;28;20196;-67
2022/03/25 05:11:20;;;;;;;4.78;4.38;;;20.30;47.50;;;;;;4960262;28;20217;-67
2022/03/25 05:13:46;;;;;;;4.85;4.40;;;20.30;47.40;;;;;;4959824;28;20185;-67
2022/03/25 05:16:12;;;;;;;5.13;4.65;;;20.30;47.50;;;;;;4993215;28;20196;-67
2022/03/25 05:18:39;;;;;;;4.90;4.50;;;20.20;47.40;;;;;;4988775;28;20224;-67
2022/03/25 05:21:05;;;;;;;5.00;4.50;;;20.30;47.60;;;;;;4958041;28;20237;-66
2022/03/25 05:23:31;;;;;;;4.35;4.03;;;20.30;47.60;;;;;;4993385;28;20189;-66
2022/03/25 05:25:56;;;;;;;4.85;4.38;;;20.30;47.70;;;;;;4993169;28;20277;-67
2022/03/25 05:28:22;;;;;;;4.18;3.85;;;20.30;47.70;;;;;;4975687;28;20184;-67
2022/03/25 05:30:48;;;;;;;5.00;4.60;;;20.30;47.80;;;;;;4975609;28;20585;-67
2022/03/25 05:33:14;;;;;;;4.93;4.45;;;20.30;48.00;;;;;;4959828;28;20184;-66
2022/03/25 05:35:40;;;;;;;5.35;4.85;;;20.30;48.00;;;;;;4975465;28;20219;-66
2022/03/25 05:38:06;;;;;;;5.88;5.10;;;20.30;48.10;;;;;;4975668;28;20239;-67
2022/03/25 05:40:32;;;;;;;5.72;5.13;;;20.30;48.30;;;;;;4992682;28;20208;-67
2022/03/25 05:42:58;;;;;;;5.97;5.43;;;20.30;48.40;;;;;;4975571;28;20184;-67
2022/03/25 05:45:24;;;;;;;7.18;6.03;;;20.30;48.40;;;;;;4959639;28;20192;-67
2022/03/25 05:47:51;;;;;;;6.38;5.78;;;20.30;48.30;;;;;;4992793;28;20177;-67
2022/03/25 05:50:18;;;;;;;7.47;5.95;;;20.30;48.30;;;;;;4958838;28;20224;-67
2022/03/25 05:52:44;;;;;;;6.45;5.75;;;20.30;48.20;;;;;;4975440;28;20181;-68
2022/03/25 05:55:13;;;;;;;5.88;5.38;;;20.30;48.20;;;;;;4959310;28;20189;-67
2022/03/25 05:57:39;;;;;;;4.50;4.10;;;20.30;48.20;;;;;;4992895;28;20169;-68
2022/03/25 06:00:08;;;;;;;4.50;4.10;;;20.30;48.30;;;;;;4990732;28;20220;-67
2022/03/25 06:02:42;;;;;;;5.32;4.07;;;20.30;48.40;;;;;;4992448;28;20263;-67
2022/03/25 06:05:10;;;;;;;6.07;4.10;;;20.30;48.20;;;;;;4959271;28;20261;-66
2022/03/25 06:07:41;;;;;;;6.30;4.57;;;20.30;48.20;;;;;;4959469;28;20224;-67
2022/03/25 06:10:11;;;;;;;9.55;4.78;;;20.20;48.20;;;;;;4958956;28;20292;-67
2022/03/25 06:12:39;;;;;;;5.30;4.80;;;20.30;48.20;;;;;;4958894;28;20189;-67
2022/03/25 06:15:06;;;;;;;5.15;4.65;;;20.30;48.20;;;;;;4975527;28;20181;-67
2022/03/25 06:17:32;;;;;;;6.20;5.28;;;20.20;48.10;;;;;;4991411;28;20706;-67
2022/03/25 06:19:58;;;;;;;7.90;5.63;;;20.20;48.00;;;;;;4975076;28;20553;-67
2022/03/25 06:22:24;;;;;;;6.80;6.13;;;20.30;47.90;;;;;;4959491;28;20204;-67
2022/03/25 06:24:52;;;;;;;7.72;6.45;;;20.30;47.70;;;;;;4959023;28;20185;-67
2022/03/25 06:27:19;;;;;;;6.82;6.03;;;20.20;47.50;;;;;;4992474;28;20185;-67
2022/03/25 06:29:45;;;;;;;7.13;6.50;;;20.30;47.50;;;;;;4975144;28;20205;-67
2022/03/25 06:32:10;;;;;;;6.97;6.28;;;20.30;47.30;;;;;;4975437;28;20236;-67
2022/03/25 06:34:36;;;;;;;7.63;6.57;;;20.20;47.20;;;;;;4992492;28;20628;-67
2022/03/25 06:37:03;;;;;;;7.40;6.70;;;20.20;47.00;;;;;;4958958;28;20276;-67
2022/03/25 06:39:30;;;;;;;7.18;6.47;;;20.20;46.90;;;;;;4974673;28;20252;-67
2022/03/25 06:41:56;;;;;;;7.38;5.68;;;20.20;46.90;;;;;;4975366;28;20213;-68
2022/03/25 06:44:22;;;;;;;6.00;5.40;;;20.20;46.90;;;;;;4975393;28;20287;-67
2022/03/25 06:46:48;;;;;;;5.68;4.80;;;20.30;46.80;;;;;;4975317;28;20181;-67
2022/03/25 06:49:14;;;;;;;5.43;4.93;;;20.20;46.90;;;;;;4990933;28;20188;-67
2022/03/25 06:51:40;;;;;;;5.43;4.93;;;20.30;46.90;;;;;;4974251;28;20217;-68
2022/03/25 06:54:07;;;;;;;5.68;5.18;;;20.30;46.90;;;;;;4983243;28;20192;-68
2022/03/25 06:56:34;;;;;;;5.40;4.90;;;20.30;46.80;;;;;;4978111;28;20275;-68
2022/03/25 06:59:02;;;;;;;6.03;5.05;;;20.40;46.80;;;;;;4991393;28;20187;-67
2022/03/25 07:04:03;;;;;;;5.20;4.70;;;20.40;46.80;;;;;;5033737;28;20235;-70
2022/03/25 07:06:31;;;;;;;5.88;4.68;;;20.40;46.80;;;;;;5021802;28;20547;-69
2022/03/25 07:08:58;;;;;;;7.82;5.20;;;20.50;46.80;;;;;;5018822;28;20194;-69
2022/03/25 07:11:24;;;;;;;6.60;6.03;;;20.50;46.70;;;;;;5019409;28;20211;-69
2022/03/25 07:13:51;;;;;;;8.65;6.43;;;20.40;46.60;;;;;;5037039;28;20183;-69
2022/03/25 07:16:20;;;;;;;6.70;6.10;;;20.50;46.60;;;;;;5019716;28;20214;-69
2022/03/25 07:18:46;;;;;;;7.57;6.57;;;20.50;46.50;;;;;;5003053;28;20190;-69
2022/03/25 07:21:12;;;;;;;7.65;6.05;;;20.50;46.50;;;;;;5028198;28;20242;-69
2022/03/25 07:23:39;;;;;;;5.88;5.38;;;20.50;46.40;;;;;;5036115;28;20183;-68
2022/03/25 07:26:05;;;;;;;8.60;7.07;;;20.60;46.40;;;;;;5035493;28;20192;-70
2022/03/25 07:28:32;;;;;;;7.38;6.65;;;20.60;46.30;;;;;;5002833;28;20210;-69
2022/03/25 07:30:57;;;;;;;8.73;7.38;;;20.60;46.20;;;;;;5022246;28;20249;-69
2022/03/25 07:33:23;;;;;;;6.95;6.35;;;20.60;46.20;;;;;;5025250;28;20187;-69
2022/03/25 07:35:49;;;;;;;6.65;6.05;;;20.60;46.20;;;;;;5022952;28;20186;-69
2022/03/25 07:38:15;;;;;;;7.40;6.15;;;20.60;46.10;;;;;;5037614;28;20182;-70
2022/03/25 07:40:40;;;;;;;6.55;5.95;;;20.60;46.20;;;;;;5001556;28;20238;-69
2022/03/25 07:43:06;;;;;;;6.93;6.32;;;20.70;46.10;;;;;;5018550;28;20202;-69
2022/03/25 07:45:32;;;;;;;6.07;5.53;;;20.70;46.10;;;;;;5018095;28;20341;-69
2022/03/25 07:47:58;;;;;;;6.50;5.90;;;20.70;46.00;;;;;;5012563;28;20189;-69
2022/03/25 07:50:24;;;;;;;6.05;5.55;;;20.70;46.00;;;;;;5021117;28;20219;-69
2022/03/25 07:52:52;;;;;;;7.32;5.80;;;20.70;45.90;;;;;;5046680;28;20640;-69
2022/03/25 07:55:20;;;;;;;6.15;5.65;;;20.70;45.80;;;;;;5040077;28;20183;-69
2022/03/25 07:57:48;;;;;;;6.32;5.72;;;20.70;45.80;;;;;;5031770;28;20241;-69
2022/03/25 08:00:14;;;;;;;6.45;5.85;;;20.80;45.80;;;;;;5017576;28;20688;-69
2022/03/25 08:02:43;;;;;;;6.38;5.78;;;20.80;45.70;;;;;;5028779;28;20240;-69
2022/03/25 08:05:10;;;;;;;6.05;5.45;;;20.80;45.70;;;;;;5033669;28;20190;-69
2022/03/25 08:07:49;;;;;;;6.40;5.60;;;20.80;45.80;;;;;;5017141;28;20187;-69
2022/03/25 08:10:18;;;;;;;5.97;5.47;;;20.80;45.70;;;;;;4997027;28;20216;-69
2022/03/25 08:12:44;;;;;;;6.57;5.57;;;20.80;45.70;;;;;;5013788;28;20462;-69
2022/03/25 08:15:10;;;;;;;6.07;5.57;;;20.80;45.70;;;;;;5020722;28;20188;-69
2022/03/25 08:18:01;;;;;;;5.65;5.18;;;20.80;45.70;;;;;;5037293;28;20652;-69
2022/03/25 08:20:39;;;;;;;6.70;6.03;;;20.80;45.70;;;;;;5018770;28;20265;-69
2022/03/25 08:27:48;;;;;;;6.30;5.70;;;20.80;45.70;;;;;;5043505;28;20206;-69
2022/03/25 08:28:45;;;;;;;5.65;5.15;;;20.80;45.50;;;;;;5034915;28;20198;-70
2022/03/25 08:31:11;;;;;;;5.85;5.32;;;20.90;45.60;;;;;;5017595;28;20215;-69
2022/03/25 08:33:37;;;;;;;5.82;5.22;;;20.90;45.60;;;;;;5000392;28;20237;-69
2022/03/25 08:36:03;;;;;;;6.40;5.80;;;20.90;45.60;;;;;;5016787;28;20179;-69
2022/03/25 08:38:28;;;;;;;6.13;5.30;;;20.90;45.60;;;;;;5016755;28;20187;-69
2022/03/25 08:40:54;;;;;;;6.47;5.88;;;20.90;45.60;;;;;;5026219;28;20215;-69
2022/03/25 08:43:20;;;;;;;6.70;5.60;;;20.90;45.60;;;;;;5022536;28;20210;-69
2022/03/25 08:45:46;;;;;;;6.25;5.65;;;20.90;45.60;;;;;;5035514;28;20194;-69
2022/03/25 08:48:12;;;;;;;5.97;5.45;;;20.90;45.60;;;;;;5005089;28;20180;-69
2022/03/25 08:50:38;;;;;;;6.40;5.80;;;20.90;45.60;;;;;;4996813;28;20220;-69
2022/03/25 08:53:04;;;;;;;6.15;5.57;;;20.90;45.60;;;;;;4998412;28;20187;-69
2022/03/25 08:55:30;;;;;;;6.47;5.88;;;20.90;45.50;;;;;;5014103;28;20272;-69
2022/03/25 08:57:57;;;;;;;6.15;5.55;;;20.90;45.60;;;;;;5033374;28;20222;-69
2022/03/25 09:00:23;;;;;;;6.28;5.68;;;20.90;45.30;;;;;;5023338;28;20222;-69
2022/03/25 09:02:49;;;;;;;6.05;5.55;;;20.90;45.40;;;;;;5016614;28;20286;-69
2022/03/25 09:05:16;;;;;;;5.95;5.43;;;20.90;45.30;;;;;;5000324;28;20187;-69
2022/03/25 09:07:43;;;;;;;6.32;5.78;;;20.90;45.40;;;;;;5032460;28;20270;-69
2022/03/25 09:10:17;;;;;;;6.35;5.82;;;20.90;45.40;;;;;;5003948;28;20207;-68
2022/03/25 09:12:45;;;;;;;6.13;5.53;;;20.90;45.40;;;;;;5017424;28;20184;-69
2022/03/25 09:15:13;;;;;;;6.35;5.55;;;20.90;45.20;;;;;;5017144;28;20316;-69
2022/03/25 09:17:41;;;;;;;5.95;5.35;;;20.90;45.10;;;;;;5015707;28;20202;-69
2022/03/25 09:20:08;;;;;;;6.45;5.85;;;20.90;45.10;;;;;;5050228;28;20271;-69
2022/03/25 09:22:34;;;;;;;6.78;5.95;;;20.90;45.00;;;;;;5033457;28;20183;-68
2022/03/25 09:25:01;;;;;;;6.20;5.70;;;20.90;45.00;;;;;;5000716;28;20175;-68
2022/03/25 09:27:27;;;;;;;6.38;5.75;;;20.90;45.10;;;;;;4999852;28;20213;-69
2022/03/25 09:29:53;;;;;;;5.60;5.10;;;20.90;45.30;;;;;;5000415;28;20821;-69
2022/03/25 09:32:19;;;;;;;5.95;5.43;;;20.90;45.20;;;;;;5013872;28;20182;-69
2022/03/25 09:37:29;;;;;;;6.20;5.60;;;20.90;45.50;;;;;;5034028;28;20269;-70
2022/03/25 09:39:55;;;;;;;6.18;5.63;;;20.90;45.30;;;;;;5034230;28;20211;-71
2022/03/25 09:42:21;;;;;;;6.55;5.70;;;20.90;45.20;;;;;;5009852;28;20199;-71
2022/03/25 09:44:49;;;;;;;5.93;5.43;;;20.90;45.20;;;;;;5019814;28;20194;-70
2022/03/25 09:47:16;;;;;;;6.20;5.60;;;20.90;45.10;;;;;;5032471;28;20191;-70
2022/03/25 09:49:43;;;;;;;6.18;5.57;;;20.90;45.00;;;;;;5016179;28;20190;-70
2022/03/25 09:52:10;;;;;;;6.82;5.63;;;20.90;45.00;;;;;;5033389;28;20238;-70
2022/03/25 09:54:36;;;;;;;6.68;6.07;;;20.90;45.10;;;;;;4999249;28;20645;-70
2022/03/25 09:57:03;;;;;;;6.03;5.43;;;20.90;44.70;;;;;;5023994;28;20183;-70
2022/03/25 09:59:29;;;;;;;6.90;5.95;;;20.90;44.70;;;;;;5015070;28;20278;-70
2022/03/25 10:01:55;;;;;;;5.68;5.18;;;20.90;44.60;;;;;;5015667;28;20274;-70
2022/03/25 10:04:45;;;;;;;5.95;5.45;;;20.90;44.80;;;;;;5016740;28;20191;-69
2022/03/25 10:07:44;;;;;;;6.03;5.20;;;20.90;45.10;;;;;;4998863;28;20201;-69
2022/03/25 10:10:20;;;;;;;6.20;5.70;;;20.90;45.40;;;;;;4994583;28;20218;-70
2022/03/25 10:13:00;;;;;;;6.55;5.90;;;20.90;44.80;;;;;;5035221;28;20196;-70
2022/03/25 10:15:29;;;;;;;6.13;5.53;;;20.90;44.70;;;;;;5011467;28;20179;-69
2022/03/25 10:17:58;;;;;;;6.35;5.75;;;20.90;44.80;;;;;;5033182;28;20191;-69
2022/03/25 10:20:42;;;;;;;6.18;5.65;;;20.90;44.60;;;;;;5014084;28;20210;-69
2022/03/25 10:23:19;;;;;;;5.93;5.32;;;20.90;44.70;;;;;;5018872;28;20182;-70
2022/03/25 10:25:59;;;;;;;6.88;5.30;;;20.90;44.70;;;;;;5017679;28;20276;-70
2022/03/25 10:28:36;;;;;;;6.07;5.32;;;20.90;44.70;;;;;;5003604;28;20175;-70
2022/03/25 10:31:19;;;;;;;6.05;5.43;;;20.90;44.80;;;;;;5019222;28;20226;-70
2022/03/25 10:33:54;;;;;;;6.47;5.45;;;20.90;44.80;;;;;;5052517;28;20224;-69
2022/03/25 10:36:21;;;;;;;6.30;5.70;;;20.90;44.50;;;;;;5011168;28;20184;-69
2022/03/25 10:39:11;;;;;;;6.40;5.80;;;20.90;44.60;;;;;;5051714;28;20194;-69
2022/03/25 10:41:45;;;;;;;6.07;5.55;;;20.90;44.30;;;;;;5028029;28;20274;-69
2022/03/25 10:44:11;;;;;;;6.13;5.53;;;20.90;44.50;;;;;;5029920;28;20182;-70
2022/03/25 10:46:49;;;;;;;6.00;5.50;;;21.00;44.50;;;;;;5033458;28;20222;-70
2022/03/25 10:49:17;;;;;;;5.78;5.28;;;20.90;44.30;;;;;;5038881;28;20176;-70
2022/03/25 10:51:56;;;;;;;7.40;5.95;;;20.90;44.50;;;;;;5020986;28;20293;-70
2022/03/25 10:54:27;;;;;;;6.15;5.63;;;20.90;44.50;;;;;;5020797;28;20230;-70
2022/03/25 10:56:59;;;;;;;7.60;6.00;;;20.90;44.50;;;;;;5001782;28;20207;-70
2022/03/25 10:59:35;;;;;;;6.38;5.78;;;20.90;44.40;;;;;;5001130;28;20172;-70
2022/03/25 11:02:07;;;;;;;6.60;6.00;;;21.00;44.30;;;;;;5009226;28;20180;-70
2022/03/25 11:04:34;;;;;;;5.93;5.30;;;20.90;44.30;;;;;;5041074;28;20193;-70
2022/03/25 11:07:03;;;;;;;6.38;5.80;;;21.00;44.60;;;;;;5047656;28;20191;-70
2022/03/25 11:09:30;;;;;;;6.50;5.30;;;21.00;44.40;;;;;;5020443;28;20200;-69
2022/03/25 11:11:58;;;;;;;6.07;5.47;;;20.90;44.20;;;;;;5040896;28;20195;-71
2022/03/25 11:14:25;;;;;;;6.35;5.75;;;21.00;44.10;;;;;;5041135;28;20190;-70
2022/03/25 11:17:02;;;;;;;5.78;5.28;;;21.00;44.20;;;;;;5030134;28;20187;-70
2022/03/25 11:19:29;;;;;;;5.80;5.25;;;20.90;44.00;;;;;;5025154;28;20229;-70
2022/03/25 11:21:59;;;;;;;5.93;5.18;;;21.00;44.40;;;;;;5020064;28;20241;-70
2022/03/25 11:24:42;;;;;;;7.85;5.18;;;21.00;44.30;;;;;;5036741;28;20175;-70
2022/03/25 11:27:30;;;;;;;6.03;5.43;;;21.00;44.40;;;;;;5036918;28;20201;-71
2022/03/25 11:30:09;;;;;;;6.38;5.47;;;21.00;44.40;;;;;;5001743;28;20206;-71
2022/03/25 11:33:00;;;;;;;5.93;5.43;;;20.90;44.40;;;;;;5015249;28;20186;-70
2022/03/25 11:35:26;;;;;;;5.45;4.95;;;21.00;45.10;;;;;;5024003;28;20236;-70
2022/03/25 11:38:10;;;;;;;5.25;4.75;;;21.00;44.90;;;;;;5022884;28;20278;-70
2022/03/25 11:40:45;;;;;;;5.63;4.38;;;21.00;45.00;;;;;;5015443;28;20305;-70
2022/03/25 11:43:20;;;;;;;5.38;4.88;;;21.00;45.60;;;;;;5017171;28;20185;-71
2022/03/25 11:46:09;;;;;;;4.95;4.55;;;21.00;45.50;;;;;;5021028;28;20245;-71
2022/03/25 11:48:40;;;;;;;5.30;4.90;;;21.00;44.90;;;;;;5005282;28;20187;-71
2022/03/25 11:51:31;;;;;;;5.40;4.90;;;21.00;44.50;;;;;;5005092;28;20221;-71
2022/03/25 11:53:57;;;;;;;6.07;5.20;;;21.00;44.30;;;;;;4999343;28;20262;-70
2022/03/25 11:56:24;;;;;;;5.60;4.90;;;21.00;45.50;;;;;;5021820;28;20233;-70
2022/03/25 11:58:55;;;;;;;6.38;5.78;;;21.00;44.70;;;;;;5016547;28;20657;-70
2022/03/25 12:01:22;;;;;;;5.50;4.50;;;21.00;44.80;;;;;;5025452;28;20207;-70
2022/03/25 12:03:52;;;;;;;5.40;4.93;;;21.00;44.60;;;;;;5033937;28;20209;-71
2022/03/25 12:06:20;;;;;;;6.10;5.50;;;21.00;44.70;;;;;;5024812;28;20187;-70
2022/03/25 12:09:15;;;;;;;5.32;4.82;;;21.00;44.50;;;;;;5017530;28;20206;-71
2022/03/25 12:11:58;;;;;;;5.60;4.75;;;21.00;44.80;;;;;;5031779;28;20218;-70
2022/03/25 12:14:31;;;;;;;6.38;4.93;;;21.00;44.70;;;;;;5016467;28;20677;-70
2022/03/25 12:17:09;;;;;;;5.63;5.03;;;21.00;44.10;;;;;;5024272;28;20191;-70
2022/03/25 12:19:39;;;;;;;6.00;4.85;;;21.00;44.20;;;;;;5022047;28;20210;-71
2022/03/25 12:22:28;;;;;;;6.13;5.18;;;21.00;44.20;;;;;;5011748;28;20187;-69
2022/03/25 12:25:09;;;;;;;5.47;5.00;;;21.00;45.30;;;;;;5037829;28;20202;-70
2022/03/25 12:27:35;;;;;;;6.05;4.70;;;21.00;44.60;;;;;;5033897;28;20187;-70
2022/03/25 12:30:01;;;;;;;5.85;5.22;;;21.00;44.60;;;;;;5010071;28;20202;-71
2022/03/25 12:32:34;;;;;;;6.03;5.43;;;21.00;44.50;;;;;;5040134;28;20237;-70
2022/03/25 12:35:17;;;;;;;6.63;4.80;;;21.00;45.00;;;;;;5038530;28;20173;-71
2022/03/25 12:38:09;;;;;;;6.30;5.70;;;21.00;44.30;;;;;;5006107;28;20187;-70
2022/03/25 12:40:36;;;;;;;7.15;5.47;;;21.00;44.40;;;;;;5017835;28;20245;-71
2022/03/25 12:43:08;;;;;;;6.28;5.13;;;21.00;44.10;;;;;;5051627;28;20193;-70
2022/03/25 12:45:44;;;;;;;5.53;5.03;;;21.00;44.20;;;;;;5057404;28;20171;-70
2022/03/25 12:48:20;;;;;;;5.57;4.88;;;21.00;43.80;;;;;;5019750;28;20266;-70
2022/03/25 12:50:53;;;;;;;5.93;5.32;;;21.00;44.40;;;;;;5010506;28;20297;-70
2022/03/25 12:53:31;;;;;;;5.97;5.40;;;21.00;44.30;;;;;;5028060;28;20195;-71
2022/03/25 12:56:01;;;;;;;6.00;5.47;;;21.00;44.10;;;;;;5019753;28;20274;-71
2022/03/25 12:58:27;;;;;;;5.93;5.43;;;21.00;44.20;;;;;;5032414;28;20174;-71
2022/03/25 13:00:56;;;;;;;5.68;5.18;;;21.00;44.10;;;;;;5029985;23;20243;-68
2022/03/25 13:03:23;;;;;;;7.82;5.25;;;21.00;43.90;;;;;;4991557;28;20267;-69
2022/03/25 13:05:50;;;;;;;5.72;5.13;;;21.00;44.20;;;;;;4974550;28;20189;-68